Time;durP1;ratioP1;P1;durP2;ratioP2;P2;SDS_P1;SDS_P2;PMS_P1;PMS_P2;Temp;Humidity;BMP_temperature;BMP_pressure;BME280_temperature;BME280_humidity;BME280_pressure;Samples;Min_cycle;Max_cycle;Signal;HPM_P1;HPM_P2
2022/05/26 00:00:59;;;;;;;5.82;5.10;;;13.10;99.90;;;;;;4978166;28;94566;-35
2022/05/26 00:03:25;;;;;;;6.38;4.50;;;13.10;99.90;;;;;;4977866;28;94560;-38
2022/05/26 00:05:51;;;;;;;4.47;4.07;;;13.10;99.90;;;;;;4976998;28;95962;-35
2022/05/26 00:08:17;;;;;;;5.28;3.15;;;13.10;99.90;;;;;;4978024;28;97114;-35
2022/05/26 00:10:42;;;;;;;2.75;2.40;;;13.10;99.90;;;;;;4978524;28;92529;-34
2022/05/26 00:13:08;;;;;;;3.40;2.70;;;13.10;99.90;;;;;;4978228;28;94550;-37
2022/05/26 00:15:34;;;;;;;2.90;2.50;;;13.10;99.90;;;;;;4978635;28;94301;-35
2022/05/26 00:17:59;;;;;;;13.13;3.22;;;13.00;99.90;;;;;;4977916;28;94836;-34
2022/05/26 00:20:25;;;;;;;4.93;3.42;;;12.90;99.90;;;;;;4978262;28;94350;-38
2022/05/26 00:22:50;;;;;;;6.88;2.72;;;12.90;99.90;;;;;;4978232;28;92548;-34
2022/05/26 00:25:16;;;;;;;5.63;2.42;;;12.80;99.90;;;;;;4977645;28;94552;-36
2022/05/26 00:27:42;;;;;;;2.28;2.05;;;12.90;99.90;;;;;;4977358;28;94509;-32
2022/05/26 00:30:08;;;;;;;2.58;1.80;;;12.90;99.90;;;;;;4967792;28;94235;-34
2022/05/26 00:32:34;;;;;;;2.67;2.47;;;12.90;99.90;;;;;;4957982;28;92660;-34
2022/05/26 00:34:59;;;;;;;4.85;2.70;;;12.90;99.90;;;;;;4958053;28;95641;-35
2022/05/26 00:37:25;;;;;;;5.05;3.40;;;12.90;99.90;;;;;;4957804;28;95341;-36
2022/05/26 00:39:50;;;;;;;3.50;3.20;;;12.90;99.90;;;;;;4957966;28;93409;-38
2022/05/26 00:42:17;;;;;;;9.75;3.08;;;12.90;99.90;;;;;;4957364;28;93068;-37
2022/05/26 00:44:43;;;;;;;3.53;3.22;;;12.90;99.90;;;;;;4957426;28;93741;-33
2022/05/26 00:47:14;;;;;;;8.30;6.07;;;13.00;99.90;;;;;;4958340;28;95889;-34
2022/05/26 00:49:43;;;;;;;6.55;5.57;;;13.10;99.90;;;;;;4998507;22;94565;-34
2022/05/26 00:52:17;;;;;;;10.95;7.97;;;13.10;99.90;;;;;;4997649;28;94184;-36
2022/05/26 00:54:45;;;;;;;8.23;7.43;;;13.10;99.90;;;;;;4978019;28;96606;-35
2022/05/26 00:57:17;;;;;;;13.20;7.80;;;13.00;99.90;;;;;;4997158;28;95057;-36
2022/05/26 00:59:57;;;;;;;13.55;9.15;;;13.10;99.90;;;;;;4997126;28;94229;-37
2022/05/26 01:02:32;;;;;;;20.45;10.20;;;13.10;99.90;;;;;;4997409;28;94600;-35
2022/05/26 01:05:01;;;;;;;17.58;11.93;;;13.20;99.90;;;;;;4996015;28;95082;-38
2022/05/26 01:07:32;;;;;;;16.40;11.98;;;13.20;99.90;;;;;;4996525;28;94059;-36
2022/05/26 01:09:57;;;;;;;12.88;11.55;;;13.30;99.90;;;;;;4995844;28;94074;-38
2022/05/26 01:12:23;;;;;;;14.85;10.27;;;13.30;99.90;;;;;;4996470;28;92982;-35
2022/05/26 01:14:55;;;;;;;20.85;11.77;;;13.30;99.90;;;;;;4996076;28;94269;-35
2022/05/26 01:17:24;;;;;;;18.73;12.75;;;13.30;99.90;;;;;;4996037;28;94759;-35
2022/05/26 01:20:10;;;;;;;17.42;14.13;;;13.30;99.90;;;;;;4996280;28;95068;-33
2022/05/26 01:23:14;;;;;;;23.48;14.85;;;13.30;99.90;;;;;;4995539;28;93444;-37
2022/05/26 01:26:03;;;;;;;18.67;14.00;;;13.30;99.90;;;;;;4995961;28;94819;-35
2022/05/26 01:28:41;;;;;;;21.35;15.18;;;13.30;99.90;;;;;;4996532;28;93309;-35
2022/05/26 01:31:28;;;;;;;32.17;16.67;;;13.40;99.90;;;;;;4997066;28;94736;-36
2022/05/26 01:34:07;;;;;;;25.47;14.63;;;13.30;99.90;;;;;;4996153;28;92358;-34
2022/05/26 01:37:01;;;;;;;26.55;16.80;;;13.30;99.90;;;;;;4996646;28;94555;-34
2022/05/26 01:39:54;;;;;;;21.65;14.70;;;13.30;99.90;;;;;;4995921;28;94882;-33
2022/05/26 01:42:45;;;;;;;21.42;15.18;;;13.30;99.90;;;;;;4996566;28;94049;-38
2022/05/26 01:45:33;;;;;;;26.15;15.65;;;13.30;99.90;;;;;;4996145;28;94647;-35
2022/05/26 01:48:07;;;;;;;23.10;15.27;;;13.30;99.90;;;;;;4995212;28;94518;-36
2022/05/26 01:50:45;;;;;;;25.77;17.55;;;13.40;99.90;;;;;;4994892;28;95422;-35
2022/05/26 01:53:38;;;;;;;21.92;15.30;;;13.40;99.90;;;;;;4995895;28;93655;-38
2022/05/26 01:56:24;;;;;;;19.15;15.18;;;13.40;99.90;;;;;;4995959;28;93832;-38
2022/05/26 01:59:09;;;;;;;28.15;17.23;;;13.40;99.90;;;;;;4995962;28;95097;-33
2022/05/26 02:01:40;;;;;;;25.13;17.58;;;13.40;99.90;;;;;;4995435;28;95247;-38
2022/05/26 02:04:17;;;;;;;27.88;17.23;;;13.40;99.90;;;;;;4996305;28;94447;-35
2022/05/26 02:06:51;;;;;;;30.85;19.63;;;13.40;99.90;;;;;;4995777;28;92836;-33
2022/05/26 02:09:23;;;;;;;33.95;19.52;;;13.40;99.90;;;;;;4996218;28;94602;-36
2022/05/26 02:12:07;;;;;;;32.00;17.23;;;13.40;99.90;;;;;;4995357;28;94622;-38
2022/05/26 02:14:43;;;;;;;33.03;16.90;;;13.40;99.90;;;;;;4995449;28;93497;-34
2022/05/26 02:17:14;;;;;;;30.52;17.05;;;13.30;99.90;;;;;;4995756;28;94470;-39
2022/05/26 02:20:01;;;;;;;23.38;16.58;;;13.40;99.90;;;;;;4994747;28;94870;-37
2022/05/26 02:22:32;;;;;;;25.80;16.27;;;13.30;99.90;;;;;;4997711;28;96573;-34
2022/05/26 02:25:03;;;;;;;27.65;17.88;;;13.30;99.90;;;;;;4998925;28;93728;-34
2022/05/26 02:27:30;;;;;;;36.08;16.83;;;13.30;99.90;;;;;;4998453;28;93574;-38
2022/05/26 02:30:01;;;;;;;36.95;18.45;;;13.30;99.90;;;;;;4997869;28;94992;-37
2022/05/26 02:32:46;;;;;;;25.60;17.30;;;13.30;99.90;;;;;;4998729;28;94691;-35
2022/05/26 02:35:21;;;;;;;22.63;17.58;;;13.40;99.90;;;;;;4999371;28;92193;-34
2022/05/26 02:37:50;;;;;;;26.17;16.63;;;13.40;99.90;;;;;;4998656;28;94794;-36
2022/05/26 02:40:16;;;;;;;34.58;18.17;;;13.40;99.90;;;;;;4998164;28;96169;-33
2022/05/26 02:42:48;;;;;;;27.50;18.08;;;13.40;99.90;;;;;;4998067;28;95456;-37
2022/05/26 02:45:20;;;;;;;29.83;19.33;;;13.40;99.90;;;;;;4999193;28;94236;-35
2022/05/26 02:48:07;;;;;;;32.97;17.40;;;13.40;99.90;;;;;;4998511;28;94099;-36
2022/05/26 02:50:51;;;;;;;35.75;17.55;;;13.40;99.90;;;;;;4998620;28;95489;-36
2022/05/26 02:53:25;;;;;;;33.70;18.15;;;13.40;99.90;;;;;;4998966;28;93136;-38
2022/05/26 02:56:24;;;;;;;34.55;17.48;;;13.40;99.90;;;;;;4998351;28;92824;-33
2022/05/26 02:59:11;;;;;;;30.75;18.08;;;13.40;99.90;;;;;;4999330;28;91614;-35
2022/05/26 03:02:00;;;;;;;37.60;16.45;;;13.50;99.90;;;;;;4998329;28;95610;-35
2022/05/26 03:04:33;;;;;;;32.00;18.33;;;13.50;99.90;;;;;;4986004;28;95354;-34
2022/05/26 03:07:02;;;;;;;34.22;17.98;;;13.40;99.90;;;;;;4997663;28;93625;-36
2022/05/26 03:09:35;;;;;;;32.58;17.60;;;13.40;99.90;;;;;;4998716;28;93618;-37
2022/05/26 03:12:01;;;;;;;35.40;17.70;;;13.40;99.90;;;;;;4997429;28;95628;-34
2022/05/26 03:14:27;;;;;;;37.42;17.50;;;13.40;99.90;;;;;;4998945;28;94637;-34
2022/05/26 03:16:53;;;;;;;35.40;17.58;;;13.40;99.90;;;;;;4997630;28;92920;-37
2022/05/26 03:19:19;;;;;;;36.92;17.52;;;13.40;99.90;;;;;;4998554;28;93016;-34
2022/05/26 03:21:45;;;;;;;31.70;17.67;;;13.40;99.90;;;;;;4997988;28;95203;-34
2022/05/26 03:24:12;;;;;;;27.42;16.88;;;13.50;99.90;;;;;;4998053;28;94675;-35
2022/05/26 03:26:38;;;;;;;26.10;16.05;;;13.40;99.90;;;;;;4998288;28;93667;-38
2022/05/26 03:29:05;;;;;;;33.08;16.08;;;13.50;99.90;;;;;;4998462;28;93372;-34
2022/05/26 03:31:31;;;;;;;34.28;15.05;;;13.50;99.90;;;;;;4997125;28;95969;-35
2022/05/26 03:42:12;;;;;;;30.65;14.15;;;13.50;99.90;;;;;;4998203;28;94889;-37
2022/05/26 03:44:38;;;;;;;25.30;13.93;;;13.50;99.90;;;;;;4997285;28;94218;-33
2022/05/26 03:47:05;;;;;;;26.08;14.07;;;13.50;99.90;;;;;;4997729;28;93695;-37
2022/05/26 03:49:31;;;;;;;28.90;14.40;;;13.50;99.90;;;;;;4998004;28;92509;-34
2022/05/26 03:51:57;;;;;;;28.00;14.68;;;13.50;99.90;;;;;;4997049;28;94353;-34
2022/05/26 03:54:23;;;;;;;25.38;14.30;;;13.50;99.90;;;;;;4997549;28;94264;-34
2022/05/26 03:56:49;;;;;;;20.95;13.35;;;13.50;99.90;;;;;;4997001;28;95548;-32
2022/05/26 03:59:14;;;;;;;24.67;13.98;;;13.50;99.90;;;;;;4997675;28;92581;-34
2022/05/26 04:01:40;;;;;;;29.23;12.25;;;13.50;99.90;;;;;;4997223;28;95205;-37
2022/05/26 04:04:07;;;;;;;30.10;13.93;;;13.50;99.90;;;;;;4997074;28;94846;-37
2022/05/26 04:06:32;;;;;;;26.20;12.07;;;13.50;99.90;;;;;;4997805;28;92420;-38
2022/05/26 04:08:58;;;;;;;24.48;12.35;;;13.50;99.90;;;;;;4979720;28;94305;-33
2022/05/26 04:11:24;;;;;;;25.38;11.48;;;13.60;99.90;;;;;;4996828;28;94814;-33
2022/05/26 04:13:51;;;;;;;29.67;11.52;;;13.50;99.90;;;;;;4997854;28;95501;-34
2022/05/26 04:16:17;;;;;;;34.67;11.50;;;13.60;99.90;;;;;;4997012;28;93422;-37
2022/05/26 04:18:43;;;;;;;23.45;12.07;;;13.60;99.90;;;;;;4997272;28;93421;-34
2022/05/26 04:21:10;;;;;;;27.58;12.18;;;13.50;99.90;;;;;;4997014;28;96030;-37
2022/05/26 04:23:36;;;;;;;26.15;11.48;;;13.60;99.90;;;;;;4996636;28;95240;-35
2022/05/26 04:26:04;;;;;;;20.17;9.68;;;13.70;99.90;;;;;;4996571;28;93899;-34
2022/05/26 04:28:29;;;;;;;15.63;10.37;;;13.70;99.90;;;;;;4998768;28;93297;-34
2022/05/26 04:30:55;;;;;;;16.98;9.57;;;13.80;99.90;;;;;;4996894;28;94630;-37
2022/05/26 04:33:21;;;;;;;25.58;10.32;;;13.90;99.90;;;;;;4997065;28;94730;-38
2022/05/26 04:35:46;;;;;;;31.70;11.00;;;14.10;99.90;;;;;;4997288;28;94653;-34
2022/05/26 04:38:12;;;;;;;30.08;9.68;;;14.30;99.90;;;;;;4996973;28;93207;-36
2022/05/26 04:40:39;;;;;;;18.88;8.95;;;14.40;99.90;;;;;;4979546;28;94732;-38
2022/05/26 04:43:05;;;;;;;22.17;9.05;;;14.60;99.90;;;;;;4998243;28;96497;-36
2022/05/26 04:45:31;;;;;;;18.20;9.25;;;14.60;99.90;;;;;;4995652;28;94337;-34
2022/05/26 04:47:57;;;;;;;19.17;9.55;;;14.40;99.90;;;;;;4997336;28;93788;-36
2022/05/26 04:50:23;;;;;;;20.42;9.07;;;14.40;99.90;;;;;;4997046;28;94794;-36
2022/05/26 04:52:49;;;;;;;25.70;7.82;;;14.40;99.90;;;;;;4997337;28;95328;-34
2022/05/26 04:55:15;;;;;;;16.25;7.13;;;14.50;99.90;;;;;;4998485;28;93168;-34
2022/05/26 04:57:40;;;;;;;14.70;7.15;;;14.60;99.90;;;;;;4996887;28;94174;-35
2022/05/26 05:00:10;;;;;;;19.17;8.52;;;14.50;99.90;;;;;;4997469;28;95313;-35
2022/05/26 05:02:36;;;;;;;20.63;7.13;;;14.60;99.90;;;;;;4997303;28;95292;-34
2022/05/26 05:05:03;;;;;;;20.77;6.82;;;14.60;99.90;;;;;;4997280;28;95085;-37
2022/05/26 05:07:29;;;;;;;20.83;8.02;;;14.50;99.90;;;;;;4997068;28;93303;-35
2022/05/26 05:09:55;;;;;;;13.82;7.75;;;14.40;99.90;;;;;;4996409;28;95293;-37
2022/05/26 05:12:22;;;;;;;14.55;6.25;;;14.40;99.90;;;;;;4996685;28;95869;-39
2022/05/26 05:14:50;;;;;;;28.60;8.00;;;14.40;99.90;;;;;;4996883;28;94462;-37
2022/05/26 05:17:18;;;;;;;21.55;6.40;;;14.30;99.90;;;;;;4997300;28;93104;-36
2022/05/26 05:19:44;;;;;;;19.05;6.97;;;14.30;99.90;;;;;;4996915;28;94727;-34
2022/05/26 05:22:09;;;;;;;10.30;6.55;;;14.40;99.90;;;;;;4996365;28;94564;-37
2022/05/26 05:24:45;;;;;;;9.65;5.68;;;14.60;99.90;;;;;;4996847;28;92421;-35
2022/05/26 05:27:22;;;;;;;8.05;5.07;;;14.80;99.90;;;;;;4997452;28;92459;-36
2022/05/26 05:29:49;;;;;;;12.65;6.30;;;15.10;99.90;;;;;;4996197;28;94764;-35
2022/05/26 05:32:19;;;;;;;16.33;6.20;;;15.20;99.90;;;;;;4996727;28;94627;-38
2022/05/26 05:34:49;;;;;;;12.98;5.15;;;15.40;99.90;;;;;;4995907;28;94911;-36
2022/05/26 05:37:15;;;;;;;18.00;5.68;;;15.30;99.90;;;;;;4996316;28;93345;-34
2022/05/26 05:39:41;;;;;;;15.63;5.45;;;15.40;99.90;;;;;;4996923;28;95789;-35
2022/05/26 05:42:07;;;;;;;9.02;3.13;;;15.60;99.90;;;;;;4996544;28;94318;-34
2022/05/26 05:44:33;;;;;;;9.25;4.65;;;15.80;99.90;;;;;;4996816;28;93080;-36
2022/05/26 05:46:59;;;;;;;8.57;4.72;;;16.00;99.90;;;;;;4996119;28;93106;-34
2022/05/26 05:49:29;;;;;;;13.60;4.13;;;15.90;99.90;;;;;;4995276;28;94723;-36
2022/05/26 05:52:02;;;;;;;18.80;4.28;;;16.20;99.90;;;;;;4996414;28;94944;-38
2022/05/26 05:54:30;;;;;;;8.40;3.40;;;16.20;99.90;;;;;;4997764;28;92655;-35
2022/05/26 05:56:56;;;;;;;6.88;3.70;;;16.50;99.90;;;;;;4997693;28;92689;-36
2022/05/26 05:59:21;;;;;;;6.03;3.55;;;16.70;99.90;;;;;;4999689;28;96055;-37
2022/05/26 06:01:47;;;;;;;10.27;4.05;;;16.70;99.90;;;;;;4999837;28;95515;-34
2022/05/26 06:04:12;;;;;;;3.05;2.75;;;16.60;99.90;;;;;;5000162;28;94124;-36
2022/05/26 06:06:40;;;;;;;7.55;3.20;;;16.90;99.90;;;;;;5000072;28;93287;-35
2022/05/26 06:09:07;;;;;;;8.63;3.28;;;17.00;99.90;;;;;;5000304;28;94964;-35
2022/05/26 06:11:33;;;;;;;6.53;3.35;;;17.00;99.90;;;;;;4999292;28;93151;-34
2022/05/26 06:14:00;;;;;;;4.57;2.67;;;17.00;99.90;;;;;;5000266;28;92425;-37
2022/05/26 06:16:27;;;;;;;8.32;2.97;;;17.40;99.90;;;;;;5000426;28;93004;-37
2022/05/26 06:18:53;;;;;;;2.53;1.40;;;17.50;99.90;;;;;;4999188;28;95352;-37
2022/05/26 06:21:20;;;;;;;6.05;2.40;;;17.70;99.90;;;;;;5000129;28;94559;-37
2022/05/26 06:23:45;;;;;;;9.75;2.83;;;17.70;99.90;;;;;;4999391;28;94736;-34
2022/05/26 06:26:11;;;;;;;10.10;2.63;;;17.40;99.90;;;;;;4999490;28;93179;-35
2022/05/26 06:31:22;;;;;;;11.38;2.45;;;17.30;99.90;;;;;;4999040;28;94432;-36
2022/05/26 06:37:13;;;;;;;8.50;2.10;;;17.70;99.90;;;;;;4999280;28;94146;-34
2022/05/26 06:39:28;;;;;;;5.05;2.05;;;17.50;99.90;;;;;;4998671;28;95272;-35
2022/05/26 06:42:06;;;;;;;6.07;1.88;;;17.50;99.90;;;;;;4999356;28;94307;-39
2022/05/26 06:44:45;;;;;;;8.60;2.13;;;17.70;99.90;;;;;;5000700;28;93969;-37
2022/05/26 06:47:15;;;;;;;4.85;2.05;;;18.10;99.90;;;;;;4999924;28;93082;-36
2022/05/26 06:49:42;;;;;;;3.42;2.20;;;18.00;99.90;;;;;;4997982;28;95121;-36
2022/05/26 06:52:08;;;;;;;4.97;1.90;;;18.10;99.90;;;;;;4999938;28;95577;-35
2022/05/26 06:54:37;;;;;;;7.55;1.60;;;18.40;99.90;;;;;;4999218;28;93575;-38
2022/05/26 06:57:05;;;;;;;5.15;1.77;;;18.30;99.90;;;;;;4999126;28;94106;-34
2022/05/26 06:59:30;;;;;;;2.03;1.48;;;18.20;99.90;;;;;;4999188;28;94776;-37
2022/05/26 07:01:56;;;;;;;1.73;1.15;;;18.20;99.90;;;;;;4998781;28;96284;-35
2022/05/26 07:04:22;;;;;;;3.50;1.15;;;18.00;99.90;;;;;;4980999;28;93640;-36
2022/05/26 07:06:50;;;;;;;1.25;1.08;;;17.60;99.90;;;;;;4999455;28;92787;-36
2022/05/26 07:09:16;;;;;;;6.88;1.58;;;17.50;99.90;;;;;;4998358;28;95947;-35
2022/05/26 07:11:42;;;;;;;8.75;1.88;;;17.20;99.90;;;;;;4998290;28;93934;-35
2022/05/26 07:14:08;;;;;;;7.53;2.00;;;17.50;99.90;;;;;;4999015;28;93202;-35
2022/05/26 07:16:33;;;;;;;3.97;1.13;;;17.40;99.90;;;;;;4995394;28;93174;-34
2022/05/26 07:18:59;;;;;;;5.00;1.98;;;17.00;99.90;;;;;;4997278;28;94933;-38
2022/05/26 07:21:25;;;;;;;1.83;1.20;;;17.30;99.90;;;;;;4996872;28;94263;-36
2022/05/26 07:23:50;;;;;;;4.50;1.42;;;17.30;99.90;;;;;;4996556;28;92708;-35
2022/05/26 07:26:16;;;;;;;5.03;1.55;;;17.40;99.90;;;;;;4997153;28;94333;-36
2022/05/26 07:28:42;;;;;;;5.75;1.40;;;17.20;99.90;;;;;;4995952;28;94691;-39
2022/05/26 07:31:09;;;;;;;1.77;1.20;;;17.40;99.90;;;;;;4997151;28;95121;-35
2022/05/26 07:33:34;;;;;;;3.83;1.80;;;17.60;99.90;;;;;;4997809;28;93107;-38
2022/05/26 07:36:00;;;;;;;1.65;0.93;;;18.00;99.90;;;;;;4996616;28;93540;-35
2022/05/26 07:41:20;;;;;;;7.35;1.67;;;18.10;99.90;;;;;;4996516;28;95507;-37
2022/05/26 07:43:55;;;;;;;4.07;1.42;;;18.30;99.90;;;;;;4996678;28;94496;-37
2022/05/26 07:46:23;;;;;;;2.45;1.42;;;18.20;99.90;;;;;;4996568;28;94251;-37
2022/05/26 07:48:49;;;;;;;2.33;1.55;;;18.30;99.90;;;;;;4995519;28;94334;-37
2022/05/26 07:51:15;;;;;;;1.52;1.02;;;17.90;99.90;;;;;;4996071;28;94325;-37
2022/05/26 07:53:41;;;;;;;3.03;1.67;;;18.00;99.90;;;;;;4997105;28;92948;-35
2022/05/26 07:56:08;;;;;;;1.33;1.23;;;18.50;99.90;;;;;;4996566;28;93994;-35
2022/05/26 07:58:35;;;;;;;3.57;1.77;;;18.70;99.90;;;;;;4996953;28;94821;-37
2022/05/26 08:01:01;;;;;;;2.38;1.23;;;18.70;99.90;;;;;;4996349;28;94229;-37
2022/05/26 08:03:27;;;;;;;3.38;1.02;;;18.70;99.90;;;;;;4995311;28;95381;-36
2022/05/26 08:05:52;;;;;;;4.97;2.03;;;18.50;99.90;;;;;;4995937;28;93474;-37
2022/05/26 08:08:18;;;;;;;3.45;1.23;;;18.40;99.90;;;;;;4995571;28;94711;-37
2022/05/26 08:10:44;;;;;;;2.95;0.82;;;18.60;99.90;;;;;;4995751;28;95023;-34
2022/05/26 08:13:09;;;;;;;2.53;1.13;;;18.10;99.90;;;;;;4978801;28;93394;-36
2022/05/26 08:15:35;;;;;;;1.85;1.40;;;18.00;99.90;;;;;;4995398;28;92106;-35
2022/05/26 08:18:01;;;;;;;2.53;1.05;;;18.30;99.90;;;;;;4995912;28;94600;-36
2022/05/26 08:20:27;;;;;;;3.10;1.20;;;18.20;99.90;;;;;;4995928;28;94687;-36
2022/05/26 08:22:53;;;;;;;2.10;1.30;;;18.10;99.90;;;;;;4996294;28;94615;-39
2022/05/26 08:25:18;;;;;;;4.53;1.38;;;18.40;99.90;;;;;;4997199;28;93332;-36
2022/05/26 08:27:44;;;;;;;7.90;1.65;;;18.40;99.90;;;;;;4994527;28;95579;-38
2022/05/26 08:30:10;;;;;;;4.35;1.23;;;18.60;99.90;;;;;;4996487;28;96371;-36
2022/05/26 08:32:35;;;;;;;1.77;1.13;;;18.90;99.90;;;;;;4995439;28;94060;-37
2022/05/26 08:35:05;;;;;;;2.17;1.42;;;19.00;99.90;;;;;;4996560;28;92959;-34
2022/05/26 08:37:30;;;;;;;5.18;1.10;;;19.40;99.90;;;;;;4995895;28;95168;-37
2022/05/26 08:39:56;;;;;;;1.58;1.02;;;19.50;99.90;;;;;;4995594;28;94472;-39
2022/05/26 08:42:31;;;;;;;2.80;1.23;;;19.60;99.90;;;;;;4995447;28;92272;-38
2022/05/26 08:45:09;;;;;;;1.85;1.40;;;19.20;99.90;;;;;;4994323;28;92242;-38
2022/05/26 08:47:48;;;;;;;2.28;1.00;;;19.00;99.90;;;;;;4994556;28;96410;-38
2022/05/26 08:50:21;;;;;;;3.72;0.77;;;19.20;99.90;;;;;;4994192;28;95113;-36
2022/05/26 08:52:52;;;;;;;2.85;1.83;;;18.90;99.90;;;;;;4992800;28;95275;-38
2022/05/26 08:55:27;;;;;;;2.35;1.23;;;19.40;99.90;;;;;;4995509;28;93142;-37
2022/05/26 08:58:11;;;;;;;2.63;0.98;;;19.20;99.90;;;;;;4995223;28;95832;-36
2022/05/26 09:00:39;;;;;;;3.30;1.05;;;18.60;99.90;;;;;;4994769;28;94280;-37
2022/05/26 09:03:15;;;;;;;;;;;18.50;99.90;;;;;;4996561;28;95056;-39
2022/05/26 09:05:42;;;;;;;13.05;1.33;;;18.20;99.90;;;;;;4996315;28;93245;-34
2022/05/26 09:13:50;;;;;;;1.77;1.35;;;19.60;99.90;;;;;;4995658;28;93298;-37
2022/05/26 09:16:17;;;;;;;4.13;1.23;;;19.20;99.90;;;;;;4995163;28;92305;-37
2022/05/26 09:18:43;;;;;;;6.22;1.23;;;19.50;99.90;;;;;;4994100;28;94491;-38
2022/05/26 09:21:36;;;;;;;2.15;1.95;;;19.40;99.90;;;;;;4995288;28;94750;-38
2022/05/26 09:24:26;;;;;;;3.97;1.67;;;18.70;99.90;;;;;;4975626;28;92320;-36
2022/05/26 09:26:56;;;;;;;1.95;0.77;;;19.10;99.90;;;;;;4994699;28;94001;-36
2022/05/26 09:29:27;;;;;;;1.80;1.15;;;18.70;99.90;;;;;;4994514;28;95459;-36
2022/05/26 09:31:54;;;;;;;1.58;0.98;;;18.80;99.90;;;;;;4993843;28;94392;-38
2022/05/26 09:34:23;;;;;;;2.30;0.90;;;18.50;99.90;;;;;;4995085;28;93480;-36
2022/05/26 09:36:55;;;;;;;2.35;1.05;;;18.50;99.90;;;;;;4994499;28;92154;-37
2022/05/26 09:39:37;;;;;;;1.92;0.82;;;18.40;99.90;;;;;;4993560;28;94592;-37
2022/05/26 09:42:27;;;;;;;2.33;0.70;;;19.00;99.90;;;;;;4993781;28;94174;-34
2022/05/26 09:44:58;;;;;;;2.03;1.10;;;19.30;99.90;;;;;;4987152;28;93647;-36
2022/05/26 09:47:32;;;;;;;4.35;1.17;;;19.60;99.90;;;;;;4994755;28;92889;-37
2022/05/26 09:50:02;;;;;;;1.23;0.90;;;19.80;99.90;;;;;;4995097;28;94581;-35
2022/05/26 09:52:40;;;;;;;2.85;0.88;;;19.90;99.90;;;;;;4994730;28;94549;-40
2022/05/26 09:55:17;;;;;;;1.75;1.27;;;19.40;99.80;;;;;;4995452;28;94456;-34
2022/05/26 09:57:43;;;;;;;7.35;1.17;;;19.80;99.90;;;;;;4976165;28;94833;-36
2022/05/26 10:00:34;;;;;;;2.92;1.00;;;20.30;99.90;;;;;;4994205;28;94461;-37
2022/05/26 10:03:07;;;;;;;3.15;1.38;;;20.70;99.90;;;;;;4994816;28;96479;-37
2022/05/26 10:05:43;;;;;;;1.73;0.77;;;20.40;99.90;;;;;;4994992;28;93100;-34
2022/05/26 10:08:35;;;;;;;2.53;0.80;;;19.80;99.90;;;;;;4994487;28;93172;-34
2022/05/26 10:11:26;;;;;;;2.65;1.10;;;19.20;99.50;;;;;;4993760;28;95518;-36
2022/05/26 10:14:17;;;;;;;2.28;1.00;;;19.60;99.90;;;;;;4993593;28;95490;-36
2022/05/26 10:17:01;;;;;;;2.65;1.05;;;20.20;99.90;;;;;;4993813;28;92475;-39
2022/05/26 10:20:00;;;;;;;3.70;0.93;;;19.70;98.40;;;;;;4995683;28;93874;-38
2022/05/26 10:22:47;;;;;;;3.15;1.10;;;19.20;99.90;;;;;;4993524;28;94261;-38
2022/05/26 10:25:36;;;;;;;2.22;1.25;;;19.30;99.90;;;;;;4994600;28;94671;-39
2022/05/26 10:28:32;;;;;;;7.05;1.75;;;19.30;99.90;;;;;;4993954;28;94143;-34
2022/05/26 10:31:07;;;;;;;3.35;0.98;;;18.80;99.90;;;;;;4994592;28;91413;-35
2022/05/26 10:33:56;;;;;;;2.53;0.90;;;19.00;99.90;;;;;;4993745;28;94671;-36
2022/05/26 10:36:49;;;;;;;2.15;1.58;;;19.20;98.60;;;;;;4993787;28;94865;-37
2022/05/26 10:39:27;;;;;;;1.80;1.45;;;18.90;99.00;;;;;;4994366;28;94301;-35
2022/05/26 10:42:02;;;;;;;3.03;1.13;;;18.70;99.90;;;;;;4993677;28;93539;-35
2022/05/26 10:44:44;;;;;;;1.77;1.10;;;18.80;99.90;;;;;;4999102;28;97539;-36
2022/05/26 10:47:13;;;;;;;6.25;1.60;;;19.00;99.90;;;;;;4996672;28;94529;-36
2022/05/26 10:49:54;;;;;;;6.32;1.35;;;19.00;99.90;;;;;;4999044;28;93343;-35
2022/05/26 10:52:32;;;;;;;1.85;1.30;;;19.40;99.90;;;;;;4996343;28;93550;-36
2022/05/26 10:55:36;;;;;;;7.63;1.45;;;19.00;99.90;;;;;;4999541;28;95383;-38
2022/05/26 10:58:37;;;;;;;3.58;1.55;;;19.00;99.40;;;;;;4987048;28;94255;-36
2022/05/26 11:01:10;;;;;;;9.63;1.17;;;18.80;99.90;;;;;;4996219;28;93619;-34
2022/05/26 11:03:45;;;;;;;3.53;1.23;;;18.80;99.90;;;;;;4998652;28;93179;-38
2022/05/26 11:06:25;;;;;;;3.80;1.38;;;18.60;99.90;;;;;;4996854;28;96118;-35
2022/05/26 11:08:58;;;;;;;3.83;1.73;;;18.50;99.90;;;;;;4996841;28;94336;-36
2022/05/26 11:11:35;;;;;;;5.07;1.98;;;18.40;99.90;;;;;;4997182;28;93353;-37
2022/05/26 11:14:04;;;;;;;1.88;1.65;;;18.40;99.90;;;;;;4996226;28;93136;-36
2022/05/26 11:19:44;;;;;;;5.00;1.65;;;18.00;99.90;;;;;;4997004;28;95130;-34
2022/05/26 11:22:12;;;;;;;3.58;1.88;;;18.00;99.90;;;;;;4997600;28;94719;-35
2022/05/26 11:24:39;;;;;;;2.75;1.95;;;17.70;99.90;;;;;;4996287;28;92558;-38
2022/05/26 11:27:11;;;;;;;3.30;2.20;;;17.70;99.90;;;;;;4996564;28;94748;-39
2022/05/26 11:29:44;;;;;;;5.60;1.92;;;17.70;99.90;;;;;;4996330;28;94666;-37
2022/05/26 11:36:07;;;;;;;2.88;2.00;;;18.30;99.90;;;;;;4995453;28;93032;-36
2022/05/26 11:38:05;;;;;;;6.82;2.53;;;18.20;99.90;;;;;;4994918;28;95179;-37
2022/05/26 11:41:05;;;;;;;2.20;2.05;;;18.30;99.90;;;;;;4995955;28;94578;-35
2022/05/26 11:43:40;;;;;;;4.55;2.17;;;18.30;99.90;;;;;;4995974;28;103040;-37
2022/05/26 11:46:09;;;;;;;7.50;2.17;;;18.20;99.90;;;;;;4996442;28;93557;-36
2022/05/26 11:48:42;;;;;;;3.15;1.75;;;18.50;99.90;;;;;;4978287;28;94302;-38
2022/05/26 11:51:45;;;;;;;3.42;2.70;;;18.50;99.90;;;;;;4996112;28;94774;-35
2022/05/26 11:54:49;;;;;;;2.08;1.90;;;18.50;99.90;;;;;;4953504;28;92888;-36
2022/05/26 11:57:40;;;;;;;2.25;1.55;;;18.50;99.90;;;;;;4953408;28;92811;-36
2022/05/26 12:00:17;;;;;;;2.65;1.80;;;18.80;99.90;;;;;;4991355;28;95797;-36
2022/05/26 12:03:04;;;;;;;1.80;1.70;;;18.80;99.90;;;;;;4996217;28;95651;-34
2022/05/26 12:05:29;;;;;;;1.70;1.45;;;18.80;99.90;;;;;;4994985;28;93141;-35
2022/05/26 12:07:57;;;;;;;3.20;1.45;;;18.50;99.90;;;;;;4996125;28;93747;-36
2022/05/26 12:10:27;;;;;;;3.55;1.77;;;18.40;99.90;;;;;;4996274;28;93960;-37
2022/05/26 12:13:23;;;;;;;2.67;1.80;;;18.40;99.90;;;;;;4995322;28;95004;-34
2022/05/26 12:16:11;;;;;;;5.35;2.15;;;18.80;99.90;;;;;;4996076;28;94320;-36
2022/05/26 12:18:58;;;;;;;3.00;1.70;;;19.20;99.90;;;;;;4996395;28;91806;-35
2022/05/26 12:21:29;;;;;;;1.83;1.67;;;19.10;99.90;;;;;;4996378;28;94701;-35
2022/05/26 12:23:56;;;;;;;4.35;1.65;;;19.00;99.90;;;;;;4995313;28;94017;-34
2022/05/26 12:26:29;;;;;;;2.30;1.58;;;18.80;99.90;;;;;;4995633;28;95297;-38
2022/05/26 12:29:15;;;;;;;4.18;1.73;;;18.70;99.90;;;;;;4996277;28;93410;-38
2022/05/26 12:32:08;;;;;;;2.20;1.20;;;18.70;99.90;;;;;;4995561;28;94789;-34
2022/05/26 12:34:47;;;;;;;4.63;1.30;;;19.20;99.90;;;;;;4995230;28;94732;-39
2022/05/26 12:37:33;;;;;;;1.40;1.27;;;19.60;99.90;;;;;;4996167;28;93675;-36
2022/05/26 12:40:46;;;;;;;3.10;1.20;;;19.70;99.90;;;;;;4994559;28;92743;-35
2022/05/26 12:43:39;;;;;;;2.08;1.30;;;19.40;97.10;;;;;;4964422;28;94554;-36
2022/05/26 12:46:42;;;;;;;3.15;1.38;;;19.70;99.90;;;;;;4976087;28;94480;-37
2022/05/26 12:51:42;;;;;;;4.13;2.15;;;19.40;99.10;;;;;;4954547;28;93845;-36
2022/05/26 12:54:14;;;;;;;3.25;1.35;;;19.40;99.90;;;;;;4954684;28;95870;-37
2022/05/26 12:56:53;;;;;;;3.75;1.35;;;19.60;99.30;;;;;;4955512;28;95310;-38
2022/05/26 12:59:24;;;;;;;5.35;2.25;;;19.50;97.60;;;;;;4955444;28;92186;-34
2022/05/26 13:01:50;;;;;;;3.25;1.58;;;19.40;99.90;;;;;;4955438;28;94573;-35
2022/05/26 13:04:32;;;;;;;4.80;1.70;;;19.50;99.90;;;;;;4955831;28;94746;-39
2022/05/26 13:07:04;;;;;;;3.72;1.58;;;19.30;96.90;;;;;;4954926;28;94884;-37
2022/05/26 13:09:35;;;;;;;2.22;1.52;;;19.50;99.90;;;;;;4955215;28;94416;-36
2022/05/26 13:12:03;;;;;;;7.05;1.77;;;19.70;99.90;;;;;;4955703;28;92612;-37
2022/05/26 13:14:32;;;;;;;;;;;19.90;99.90;;;;;;4954380;28;94755;-37
2022/05/26 13:17:03;;;;;;;2.22;1.60;;;19.80;99.90;;;;;;4956125;28;94037;-38
2022/05/26 13:19:30;;;;;;;1.45;1.35;;;19.60;99.90;;;;;;4954718;28;93930;-36
2022/05/26 13:21:56;;;;;;;1.80;1.70;;;19.80;99.90;;;;;;4955194;28;92567;-35
2022/05/26 13:24:28;;;;;;;1.20;1.05;;;20.00;99.90;;;;;;4954427;28;96231;-33
2022/05/26 13:26:59;;;;;;;2.50;1.38;;;20.10;99.90;;;;;;4953530;28;94730;-35
2022/05/26 13:29:25;;;;;;;3.42;1.80;;;20.00;92.40;;;;;;4955934;28;92701;-35
2022/05/26 13:34:51;;;;;;;3.03;1.42;;;19.50;93.00;;;;;;4953380;28;94623;-37
2022/05/26 13:37:25;;;;;;;8.32;1.95;;;19.50;99.90;;;;;;4955152;28;94817;-37
2022/05/26 13:40:18;;;;;;;2.92;1.85;;;19.30;99.90;;;;;;4955133;28;93496;-35
2022/05/26 13:42:46;;;;;;;3.92;1.55;;;19.20;99.90;;;;;;4954933;28;92622;-37